sensor_id;sensor_type;location;lat;lon;timestamp;temperature;humidity
23744;DHT22;12052;53.478;10.182;2023-04-19T00:02:17;5.50;99.90
23744;DHT22;12052;53.478;10.182;2023-04-19T00:04:44;5.40;99.90
23744;DHT22;12052;53.478;10.182;2023-04-19T00:07:10;5.50;99.90
23744;DHT22;12052;53.478;10.182;2023-04-19T00:09:35;5.40;99.90
23744;DHT22;12052;53.478;10.182;2023-04-19T00:12:02;5.40;99.90
23744;DHT22;12052;53.478;10.182;2023-04-19T00:14:27;5.40;99.90
23744;DHT22;12052;53.478;10.182;2023-04-19T00:16:53;5.40;99.90
23744;DHT22;12052;53.478;10.182;2023-04-19T00:19:19;5.40;99.90
23744;DHT22;12052;53.478;10.182;2023-04-19T00:21:46;5.40;99.90
23744;DHT22;12052;53.478;10.182;2023-04-19T00:24:11;5.30;99.90
23744;DHT22;12052;53.478;10.182;2023-04-19T00:26:37;5.30;99.90
23744;DHT22;12052;53.478;10.182;2023-04-19T00:29:03;5.30;99.90
23744;DHT22;12052;53.478;10.182;2023-04-19T00:31:28;5.20;99.90
23744;DHT22;12052;53.478;10.182;2023-04-19T00:33:55;5.20;99.90
23744;DHT22;12052;53.478;10.182;2023-04-19T00:36:20;5.20;99.90
23744;DHT22;12052;53.478;10.182;2023-04-19T00:38:46;5.10;99.90
23744;DHT22;12052;53.478;10.182;2023-04-19T00:41:11;5.10;99.90
23744;DHT22;12052;53.478;10.182;2023-04-19T00:43:37;5.10;99.90
23744;DHT22;12052;53.478;10.182;2023-04-19T00:46:03;5.10;99.90
23744;DHT22;12052;53.478;10.182;2023-04-19T00:48:29;5.00;99.90
23744;DHT22;12052;53.478;10.182;2023-04-19T00:50:55;5.00;99.90
23744;DHT22;12052;53.478;10.182;2023-04-19T00:53:21;5.00;99.90
23744;DHT22;12052;53.478;10.182;2023-04-19T00:55:47;5.00;99.90
23744;DHT22;12052;53.478;10.182;2023-04-19T00:58:16;4.90;99.90
23744;DHT22;12052;53.478;10.182;2023-04-19T01:00:43;4.90;99.90
23744;DHT22;12052;53.478;10.182;2023-04-19T01:03:08;5.00;99.90
23744;DHT22;12052;53.478;10.182;2023-04-19T01:05:34;4.90;99.90
23744;DHT22;12052;53.478;10.182;2023-04-19T01:08:00;5.00;99.90
23744;DHT22;12052;53.478;10.182;2023-04-19T01:10:26;5.00;99.90
23744;DHT22;12052;53.478;10.182;2023-04-19T01:12:51;5.00;99.90
23744;DHT22;12052;53.478;10.182;2023-04-19T01:15:17;5.00;99.90
23744;DHT22;12052;53.478;10.182;2023-04-19T01:17:43;5.00;99.90
23744;DHT22;12052;53.478;10.182;2023-04-19T01:20:09;4.90;99.90
23744;DHT22;12052;53.478;10.182;2023-04-19T01:22:35;4.90;99.90
23744;DHT22;12052;53.478;10.182;2023-04-19T01:25:02;4.90;99.90
23744;DHT22;12052;53.478;10.182;2023-04-19T01:27:28;4.90;99.90
23744;DHT22;12052;53.478;10.182;2023-04-19T01:29:54;4.80;99.90
23744;DHT22;12052;53.478;10.182;2023-04-19T01:32:20;4.80;99.90
23744;DHT22;12052;53.478;10.182;2023-04-19T01:34:47;4.80;99.90
23744;DHT22;12052;53.478;10.182;2023-04-19T01:37:13;4.80;99.90
23744;DHT22;12052;53.478;10.182;2023-04-19T01:39:39;4.80;99.90
23744;DHT22;12052;53.478;10.182;2023-04-19T01:42:04;4.80;99.90
23744;DHT22;12052;53.478;10.182;2023-04-19T01:44:30;4.80;99.90
23744;DHT22;12052;53.478;10.182;2023-04-19T01:46:55;4.80;99.90
23744;DHT22;12052;53.478;10.182;2023-04-19T01:49:21;4.80;99.90
23744;DHT22;12052;53.478;10.182;2023-04-19T01:51:47;4.80;99.90
23744;DHT22;12052;53.478;10.182;2023-04-19T01:54:12;4.80;99.90
23744;DHT22;12052;53.478;10.182;2023-04-19T01:56:38;4.80;99.90
23744;DHT22;12052;53.478;10.182;2023-04-19T01:59:03;4.80;99.90
23744;DHT22;12052;53.478;10.182;2023-04-19T02:01:29;4.80;99.90
23744;DHT22;12052;53.478;10.182;2023-04-19T02:03:55;4.80;99.90
23744;DHT22;12052;53.478;10.182;2023-04-19T02:06:20;4.80;99.90
23744;DHT22;12052;53.478;10.182;2023-04-19T02:08:46;4.80;99.90
23744;DHT22;12052;53.478;10.182;2023-04-19T02:11:12;4.80;99.90
23744;DHT22;12052;53.478;10.182;2023-04-19T02:13:41;4.80;99.90
23744;DHT22;12052;53.478;10.182;2023-04-19T02:16:08;4.80;99.90
23744;DHT22;12052;53.478;10.182;2023-04-19T02:18:34;4.80;99.90
23744;DHT22;12052;53.478;10.182;2023-04-19T02:21:07;4.80;99.90
23744;DHT22;12052;53.478;10.182;2023-04-19T02:23:32;4.80;99.90
23744;DHT22;12052;53.478;10.182;2023-04-19T02:25:59;4.80;99.90
23744;DHT22;12052;53.478;10.182;2023-04-19T02:28:30;4.80;99.90
23744;DHT22;12052;53.478;10.182;2023-04-19T02:30:56;4.80;99.90
23744;DHT22;12052;53.478;10.182;2023-04-19T02:33:22;4.70;99.90
23744;DHT22;12052;53.478;10.182;2023-04-19T02:35:48;4.70;99.90
23744;DHT22;12052;53.478;10.182;2023-04-19T02:38:14;4.70;99.90
23744;DHT22;12052;53.478;10.182;2023-04-19T02:40:39;4.70;99.90
23744;DHT22;12052;53.478;10.182;2023-04-19T02:43:05;4.70;99.90
23744;DHT22;12052;53.478;10.182;2023-04-19T02:45:31;4.70;99.90
23744;DHT22;12052;53.478;10.182;2023-04-19T02:47:56;4.70;99.90
23744;DHT22;12052;53.478;10.182;2023-04-19T02:50:24;4.70;99.90
23744;DHT22;12052;53.478;10.182;2023-04-19T02:52:50;4.70;99.90
23744;DHT22;12052;53.478;10.182;2023-04-19T02:55:15;4.60;99.90
23744;DHT22;12052;53.478;10.182;2023-04-19T02:57:41;4.70;99.90
23744;DHT22;12052;53.478;10.182;2023-04-19T03:00:07;4.60;99.90
23744;DHT22;12052;53.478;10.182;2023-04-19T03:02:33;4.60;99.90
23744;DHT22;12052;53.478;10.182;2023-04-19T03:04:59;4.60;99.90
23744;DHT22;12052;53.478;10.182;2023-04-19T03:07:25;4.60;99.90
23744;DHT22;12052;53.478;10.182;2023-04-19T03:09:50;4.60;99.90
23744;DHT22;12052;53.478;10.182;2023-04-19T03:12:16;4.60;99.90
23744;DHT22;12052;53.478;10.182;2023-04-19T03:14:41;4.50;99.90
23744;DHT22;12052;53.478;10.182;2023-04-19T03:17:07;4.50;99.90
23744;DHT22;12052;53.478;10.182;2023-04-19T03:19:32;4.50;99.90
23744;DHT22;12052;53.478;10.182;2023-04-19T03:21:58;4.50;99.90
23744;DHT22;12052;53.478;10.182;2023-04-19T03:24:28;4.40;99.90
23744;DHT22;12052;53.478;10.182;2023-04-19T03:26:54;4.40;99.90
23744;DHT22;12052;53.478;10.182;2023-04-19T03:29:20;4.40;99.90
23744;DHT22;12052;53.478;10.182;2023-04-19T03:31:46;4.30;99.90
23744;DHT22;12052;53.478;10.182;2023-04-19T03:34:11;4.30;99.90
23744;DHT22;12052;53.478;10.182;2023-04-19T03:36:38;4.30;99.90
23744;DHT22;12052;53.478;10.182;2023-04-19T03:39:03;4.20;99.90
23744;DHT22;12052;53.478;10.182;2023-04-19T03:41:29;4.20;99.90
23744;DHT22;12052;53.478;10.182;2023-04-19T03:43:55;4.10;99.90
23744;DHT22;12052;53.478;10.182;2023-04-19T03:46:22;4.00;99.90
23744;DHT22;12052;53.478;10.182;2023-04-19T03:48:48;4.00;99.90
23744;DHT22;12052;53.478;10.182;2023-04-19T03:51:14;3.90;99.90
23744;DHT22;12052;53.478;10.182;2023-04-19T03:53:40;3.90;99.90
23744;DHT22;12052;53.478;10.182;2023-04-19T03:56:06;3.90;99.90
23744;DHT22;12052;53.478;10.182;2023-04-19T03:58:32;3.90;99.90
23744;DHT22;12052;53.478;10.182;2023-04-19T04:01:00;3.80;99.90
23744;DHT22;12052;53.478;10.182;2023-04-19T04:03:27;3.80;99.90
23744;DHT22;12052;53.478;10.182;2023-04-19T04:05:52;3.80;99.90
23744;DHT22;12052;53.478;10.182;2023-04-19T04:08:18;3.90;99.90
23744;DHT22;12052;53.478;10.182;2023-04-19T04:10:43;3.90;99.90
23744;DHT22;12052;53.478;10.182;2023-04-19T04:13:09;4.00;99.90
23744;DHT22;12052;53.478;10.182;2023-04-19T04:15:35;4.00;99.90
23744;DHT22;12052;53.478;10.182;2023-04-19T04:18:00;4.00;99.90
23744;DHT22;12052;53.478;10.182;2023-04-19T04:20:26;4.00;99.90
23744;DHT22;12052;53.478;10.182;2023-04-19T04:22:52;3.90;99.90
23744;DHT22;12052;53.478;10.182;2023-04-19T04:25:17;3.90;99.90
23744;DHT22;12052;53.478;10.182;2023-04-19T04:27:43;3.90;99.90
23744;DHT22;12052;53.478;10.182;2023-04-19T04:30:10;3.90;99.90
23744;DHT22;12052;53.478;10.182;2023-04-19T04:32:37;3.90;99.90
23744;DHT22;12052;53.478;10.182;2023-04-19T04:35:06;3.90;99.90
23744;DHT22;12052;53.478;10.182;2023-04-19T04:37:33;3.90;99.90
23744;DHT22;12052;53.478;10.182;2023-04-19T04:40:00;3.90;99.90
23744;DHT22;12052;53.478;10.182;2023-04-19T04:42:26;3.90;99.90
23744;DHT22;12052;53.478;10.182;2023-04-19T04:44:52;3.90;99.90
23744;DHT22;12052;53.478;10.182;2023-04-19T04:47:19;4.00;99.90
23744;DHT22;12052;53.478;10.182;2023-04-19T04:49:48;4.10;99.90
23744;DHT22;12052;53.478;10.182;2023-04-19T04:52:14;4.10;99.90
23744;DHT22;12052;53.478;10.182;2023-04-19T04:54:41;4.20;99.90
23744;DHT22;12052;53.478;10.182;2023-04-19T04:57:07;4.30;99.90
23744;DHT22;12052;53.478;10.182;2023-04-19T04:59:33;4.40;99.90
23744;DHT22;12052;53.478;10.182;2023-04-19T05:01:58;4.50;99.90
23744;DHT22;12052;53.478;10.182;2023-04-19T05:04:24;4.50;99.90
23744;DHT22;12052;53.478;10.182;2023-04-19T05:06:50;4.70;99.90
23744;DHT22;12052;53.478;10.182;2023-04-19T05:09:15;4.70;99.90
23744;DHT22;12052;53.478;10.182;2023-04-19T05:11:41;4.80;99.90
23744;DHT22;12052;53.478;10.182;2023-04-19T05:14:07;4.90;99.90
23744;DHT22;12052;53.478;10.182;2023-04-19T05:16:33;4.90;99.90
23744;DHT22;12052;53.478;10.182;2023-04-19T05:18:58;5.00;99.90
23744;DHT22;12052;53.478;10.182;2023-04-19T05:21:24;5.00;99.90
23744;DHT22;12052;53.478;10.182;2023-04-19T05:23:51;5.10;99.90
23744;DHT22;12052;53.478;10.182;2023-04-19T05:26:18;5.20;99.90
23744;DHT22;12052;53.478;10.182;2023-04-19T05:28:44;5.20;99.90
23744;DHT22;12052;53.478;10.182;2023-04-19T05:31:10;5.30;99.90
23744;DHT22;12052;53.478;10.182;2023-04-19T05:33:36;5.30;99.90
23744;DHT22;12052;53.478;10.182;2023-04-19T05:36:02;5.40;99.90
23744;DHT22;12052;53.478;10.182;2023-04-19T05:38:28;5.50;99.90
23744;DHT22;12052;53.478;10.182;2023-04-19T05:40:53;5.60;99.90
23744;DHT22;12052;53.478;10.182;2023-04-19T05:43:19;5.60;99.90
23744;DHT22;12052;53.478;10.182;2023-04-19T05:45:46;5.70;99.90
23744;DHT22;12052;53.478;10.182;2023-04-19T05:48:11;5.80;99.90
23744;DHT22;12052;53.478;10.182;2023-04-19T05:50:38;5.90;99.90
23744;DHT22;12052;53.478;10.182;2023-04-19T05:53:03;6.00;99.90
23744;DHT22;12052;53.478;10.182;2023-04-19T05:55:29;6.20;99.90
23744;DHT22;12052;53.478;10.182;2023-04-19T05:57:55;6.40;99.90
23744;DHT22;12052;53.478;10.182;2023-04-19T06:00:21;6.60;99.90
23744;DHT22;12052;53.478;10.182;2023-04-19T06:02:46;6.80;99.90
23744;DHT22;12052;53.478;10.182;2023-04-19T06:05:12;7.00;99.90
23744;DHT22;12052;53.478;10.182;2023-04-19T06:07:38;7.10;99.90
23744;DHT22;12052;53.478;10.182;2023-04-19T06:10:04;7.50;99.90
23744;DHT22;12052;53.478;10.182;2023-04-19T06:12:30;7.60;99.90
23744;DHT22;12052;53.478;10.182;2023-04-19T06:14:56;8.20;99.90
23744;DHT22;12052;53.478;10.182;2023-04-19T06:17:21;8.30;99.90
23744;DHT22;12052;53.478;10.182;2023-04-19T06:19:50;8.30;99.90
23744;DHT22;12052;53.478;10.182;2023-04-19T06:22:16;8.40;99.90
23744;DHT22;12052;53.478;10.182;2023-04-19T06:24:43;8.50;99.90
23744;DHT22;12052;53.478;10.182;2023-04-19T06:27:10;8.60;99.90
23744;DHT22;12052;53.478;10.182;2023-04-19T06:29:36;8.70;99.90
23744;DHT22;12052;53.478;10.182;2023-04-19T06:32:01;8.80;99.90
23744;DHT22;12052;53.478;10.182;2023-04-19T06:34:27;8.90;99.90
23744;DHT22;12052;53.478;10.182;2023-04-19T06:36:52;8.90;99.90
23744;DHT22;12052;53.478;10.182;2023-04-19T06:39:18;9.10;99.90
23744;DHT22;12052;53.478;10.182;2023-04-19T06:41:44;9.10;99.90
23744;DHT22;12052;53.478;10.182;2023-04-19T06:44:09;9.10;99.90
23744;DHT22;12052;53.478;10.182;2023-04-19T06:46:36;9.10;99.90
23744;DHT22;12052;53.478;10.182;2023-04-19T06:49:01;9.30;99.90
23744;DHT22;12052;53.478;10.182;2023-04-19T06:51:27;9.30;99.90
23744;DHT22;12052;53.478;10.182;2023-04-19T06:53:53;9.30;99.90
23744;DHT22;12052;53.478;10.182;2023-04-19T06:56:47;9.40;99.90
23744;DHT22;12052;53.478;10.182;2023-04-19T06:59:15;9.50;99.90
23744;DHT22;12052;53.478;10.182;2023-04-19T07:01:41;9.60;99.90
23744;DHT22;12052;53.478;10.182;2023-04-19T07:04:07;9.70;99.90
23744;DHT22;12052;53.478;10.182;2023-04-19T07:06:34;9.90;99.90
23744;DHT22;12052;53.478;10.182;2023-04-19T07:09:00;9.90;99.90
23744;DHT22;12052;53.478;10.182;2023-04-19T07:11:25;9.80;99.90
23744;DHT22;12052;53.478;10.182;2023-04-19T07:13:51;9.80;99.90
23744;DHT22;12052;53.478;10.182;2023-04-19T07:16:17;9.90;99.90
23744;DHT22;12052;53.478;10.182;2023-04-19T07:18:42;10.00;99.90
23744;DHT22;12052;53.478;10.182;2023-04-19T07:21:09;10.00;99.90
23744;DHT22;12052;53.478;10.182;2023-04-19T07:23:34;10.30;99.90
23744;DHT22;12052;53.478;10.182;2023-04-19T07:26:00;10.50;99.90
23744;DHT22;12052;53.478;10.182;2023-04-19T07:28:28;10.60;99.90
23744;DHT22;12052;53.478;10.182;2023-04-19T07:30:54;10.80;99.90
23744;DHT22;12052;53.478;10.182;2023-04-19T07:33:20;10.90;99.90
23744;DHT22;12052;53.478;10.182;2023-04-19T07:35:46;11.10;99.90
23744;DHT22;12052;53.478;10.182;2023-04-19T07:38:12;11.00;99.90
23744;DHT22;12052;53.478;10.182;2023-04-19T07:40:37;11.10;99.90
23744;DHT22;12052;53.478;10.182;2023-04-19T07:43:03;11.10;99.90
23744;DHT22;12052;53.478;10.182;2023-04-19T07:45:29;11.10;99.90
23744;DHT22;12052;53.478;10.182;2023-04-19T07:47:55;11.10;99.90
23744;DHT22;12052;53.478;10.182;2023-04-19T07:50:21;11.20;99.90
23744;DHT22;12052;53.478;10.182;2023-04-19T07:52:46;11.20;99.90
23744;DHT22;12052;53.478;10.182;2023-04-19T07:55:12;11.20;99.90
23744;DHT22;12052;53.478;10.182;2023-04-19T07:57:37;11.30;99.90
23744;DHT22;12052;53.478;10.182;2023-04-19T08:00:03;11.40;99.90
23744;DHT22;12052;53.478;10.182;2023-04-19T08:02:29;11.50;99.90
23744;DHT22;12052;53.478;10.182;2023-04-19T08:04:55;11.70;99.90
23744;DHT22;12052;53.478;10.182;2023-04-19T08:07:22;11.80;99.90
23744;DHT22;12052;53.478;10.182;2023-04-19T08:09:48;11.90;99.90
23744;DHT22;12052;53.478;10.182;2023-04-19T08:12:14;11.90;99.90
23744;DHT22;12052;53.478;10.182;2023-04-19T08:14:40;12.20;99.90
23744;DHT22;12052;53.478;10.182;2023-04-19T08:17:06;12.30;99.90
23744;DHT22;12052;53.478;10.182;2023-04-19T08:19:32;12.40;99.90
23744;DHT22;12052;53.478;10.182;2023-04-19T08:21:58;12.30;99.90
23744;DHT22;12052;53.478;10.182;2023-04-19T08:24:23;12.40;99.90
23744;DHT22;12052;53.478;10.182;2023-04-19T08:26:49;12.50;99.90
23744;DHT22;12052;53.478;10.182;2023-04-19T08:29:21;12.40;99.90
23744;DHT22;12052;53.478;10.182;2023-04-19T08:31:47;12.60;99.90
23744;DHT22;12052;53.478;10.182;2023-04-19T08:34:13;12.80;99.90
23744;DHT22;12052;53.478;10.182;2023-04-19T08:36:38;13.00;99.90
23744;DHT22;12052;53.478;10.182;2023-04-19T08:39:04;13.10;99.90
23744;DHT22;12052;53.478;10.182;2023-04-19T08:41:30;13.30;99.90
23744;DHT22;12052;53.478;10.182;2023-04-19T08:43:56;13.30;99.90
23744;DHT22;12052;53.478;10.182;2023-04-19T08:46:23;13.10;99.90
23744;DHT22;12052;53.478;10.182;2023-04-19T08:48:49;12.90;99.90
23744;DHT22;12052;53.478;10.182;2023-04-19T08:51:19;12.70;99.90
23744;DHT22;12052;53.478;10.182;2023-04-19T08:53:45;12.60;99.90
23744;DHT22;12052;53.478;10.182;2023-04-19T08:56:12;12.90;99.90
23744;DHT22;12052;53.478;10.182;2023-04-19T08:58:38;13.30;99.90
23744;DHT22;12052;53.478;10.182;2023-04-19T09:01:05;13.30;99.90
23744;DHT22;12052;53.478;10.182;2023-04-19T09:03:31;13.40;99.90
23744;DHT22;12052;53.478;10.182;2023-04-19T09:05:57;13.50;99.90
23744;DHT22;12052;53.478;10.182;2023-04-19T09:08:29;13.60;99.90
23744;DHT22;12052;53.478;10.182;2023-04-19T09:11:00;13.50;99.90
23744;DHT22;12052;53.478;10.182;2023-04-19T09:13:27;13.80;99.90
23744;DHT22;12052;53.478;10.182;2023-04-19T09:15:53;14.00;99.90
23744;DHT22;12052;53.478;10.182;2023-04-19T09:18:22;14.00;99.90
23744;DHT22;12052;53.478;10.182;2023-04-19T09:20:49;13.90;99.90
23744;DHT22;12052;53.478;10.182;2023-04-19T09:23:17;14.00;99.90
23744;DHT22;12052;53.478;10.182;2023-04-19T09:25:55;14.20;99.90
23744;DHT22;12052;53.478;10.182;2023-04-19T09:28:26;13.80;99.90
23744;DHT22;12052;53.478;10.182;2023-04-19T09:30:52;13.80;99.90
23744;DHT22;12052;53.478;10.182;2023-04-19T09:33:34;13.80;99.90
23744;DHT22;12052;53.478;10.182;2023-04-19T09:36:00;14.20;99.90
23744;DHT22;12052;53.478;10.182;2023-04-19T09:38:26;14.10;99.90
23744;DHT22;12052;53.478;10.182;2023-04-19T09:41:08;14.10;99.90
23744;DHT22;12052;53.478;10.182;2023-04-19T09:43:34;14.20;99.90
23744;DHT22;12052;53.478;10.182;2023-04-19T09:46:00;14.40;99.90
23744;DHT22;12052;53.478;10.182;2023-04-19T09:48:26;14.30;99.90
23744;DHT22;12052;53.478;10.182;2023-04-19T09:50:57;14.40;99.90
23744;DHT22;12052;53.478;10.182;2023-04-19T09:53:24;14.60;99.90
23744;DHT22;12052;53.478;10.182;2023-04-19T09:55:50;14.50;99.90
23744;DHT22;12052;53.478;10.182;2023-04-19T09:58:17;14.30;99.90
23744;DHT22;12052;53.478;10.182;2023-04-19T10:00:44;14.30;99.90
23744;DHT22;12052;53.478;10.182;2023-04-19T10:03:15;14.30;99.90
23744;DHT22;12052;53.478;10.182;2023-04-19T10:05:42;14.40;99.90
23744;DHT22;12052;53.478;10.182;2023-04-19T10:08:10;14.40;99.90
23744;DHT22;12052;53.478;10.182;2023-04-19T10:10:36;14.40;99.90
23744;DHT22;12052;53.478;10.182;2023-04-19T10:13:04;14.20;99.90
23744;DHT22;12052;53.478;10.182;2023-04-19T10:15:31;14.20;99.90
23744;DHT22;12052;53.478;10.182;2023-04-19T10:17:57;14.20;99.90
23744;DHT22;12052;53.478;10.182;2023-04-19T10:20:29;14.50;99.90
23744;DHT22;12052;53.478;10.182;2023-04-19T10:22:56;14.30;99.90
23744;DHT22;12052;53.478;10.182;2023-04-19T10:25:28;14.30;99.90
23744;DHT22;12052;53.478;10.182;2023-04-19T10:27:54;14.90;99.90
23744;DHT22;12052;53.478;10.182;2023-04-19T10:30:21;14.70;99.90
23744;DHT22;12052;53.478;10.182;2023-04-19T10:32:55;14.60;99.90
23744;DHT22;12052;53.478;10.182;2023-04-19T10:38:10;14.40;99.90
23744;DHT22;12052;53.478;10.182;2023-04-19T10:40:59;14.30;99.90
23744;DHT22;12052;53.478;10.182;2023-04-19T10:43:27;14.40;99.90
23744;DHT22;12052;53.478;10.182;2023-04-19T10:45:54;14.70;99.90
23744;DHT22;12052;53.478;10.182;2023-04-19T10:48:33;14.60;99.90
23744;DHT22;12052;53.478;10.182;2023-04-19T11:04:08;14.40;99.90
23744;DHT22;12052;53.478;10.182;2023-04-19T11:06:36;14.30;99.90
23744;DHT22;12052;53.478;10.182;2023-04-19T11:09:02;14.40;99.90
23744;DHT22;12052;53.478;10.182;2023-04-19T11:11:33;14.50;99.90
23744;DHT22;12052;53.478;10.182;2023-04-19T11:14:02;14.50;99.90
23744;DHT22;12052;53.478;10.182;2023-04-19T11:16:29;14.40;99.90
23744;DHT22;12052;53.478;10.182;2023-04-19T11:18:54;14.30;99.90
23744;DHT22;12052;53.478;10.182;2023-04-19T11:21:20;14.30;99.90
23744;DHT22;12052;53.478;10.182;2023-04-19T11:23:46;14.10;99.90
23744;DHT22;12052;53.478;10.182;2023-04-19T11:26:13;14.00;99.90
23744;DHT22;12052;53.478;10.182;2023-04-19T11:28:39;14.10;99.90
23744;DHT22;12052;53.478;10.182;2023-04-19T11:31:05;14.20;99.90
23744;DHT22;12052;53.478;10.182;2023-04-19T11:33:35;14.30;99.90
23744;DHT22;12052;53.478;10.182;2023-04-19T11:36:01;14.30;99.90
23744;DHT22;12052;53.478;10.182;2023-04-19T11:38:28;14.10;99.90
23744;DHT22;12052;53.478;10.182;2023-04-19T11:41:01;14.10;99.90
23744;DHT22;12052;53.478;10.182;2023-04-19T11:43:34;14.20;99.90
23744;DHT22;12052;53.478;10.182;2023-04-19T11:46:10;14.00;99.90
23744;DHT22;12052;53.478;10.182;2023-04-19T11:48:36;14.10;99.90
23744;DHT22;12052;53.478;10.182;2023-04-19T11:51:02;14.10;99.90
23744;DHT22;12052;53.478;10.182;2023-04-19T11:53:30;14.20;99.90
23744;DHT22;12052;53.478;10.182;2023-04-19T11:56:06;13.90;99.90
23744;DHT22;12052;53.478;10.182;2023-04-19T11:58:36;14.10;99.90
23744;DHT22;12052;53.478;10.182;2023-04-19T12:01:03;13.90;99.90
23744;DHT22;12052;53.478;10.182;2023-04-19T12:03:31;13.70;99.90
23744;DHT22;12052;53.478;10.182;2023-04-19T12:06:01;13.90;99.90
23744;DHT22;12052;53.478;10.182;2023-04-19T12:08:53;14.10;99.90
23744;DHT22;12052;53.478;10.182;2023-04-19T12:11:24;14.10;99.90
23744;DHT22;12052;53.478;10.182;2023-04-19T12:14:13;14.10;99.80
23744;DHT22;12052;53.478;10.182;2023-04-19T12:16:39;14.10;99.90
23744;DHT22;12052;53.478;10.182;2023-04-19T12:19:16;14.00;99.20
23744;DHT22;12052;53.478;10.182;2023-04-19T12:21:43;13.90;99.80
23744;DHT22;12052;53.478;10.182;2023-04-19T12:24:08;13.60;98.60
23744;DHT22;12052;53.478;10.182;2023-04-19T12:26:34;13.60;99.90
23744;DHT22;12052;53.478;10.182;2023-04-19T12:29:01;13.50;99.90
23744;DHT22;12052;53.478;10.182;2023-04-19T12:31:29;13.60;99.90
23744;DHT22;12052;53.478;10.182;2023-04-19T12:33:56;13.60;99.90
23744;DHT22;12052;53.478;10.182;2023-04-19T12:36:22;13.80;99.90
23744;DHT22;12052;53.478;10.182;2023-04-19T12:38:47;13.60;99.60
23744;DHT22;12052;53.478;10.182;2023-04-19T12:41:13;13.70;99.20
23744;DHT22;12052;53.478;10.182;2023-04-19T12:43:38;13.70;98.40
23744;DHT22;12052;53.478;10.182;2023-04-19T12:46:04;13.70;99.50
23744;DHT22;12052;53.478;10.182;2023-04-19T12:48:29;13.70;99.10
23744;DHT22;12052;53.478;10.182;2023-04-19T12:50:55;13.70;99.90
23744;DHT22;12052;53.478;10.182;2023-04-19T12:53:21;13.60;99.20
23744;DHT22;12052;53.478;10.182;2023-04-19T12:55:48;13.60;99.50
23744;DHT22;12052;53.478;10.182;2023-04-19T12:58:17;13.70;99.30
23744;DHT22;12052;53.478;10.182;2023-04-19T13:00:43;13.70;99.90
23744;DHT22;12052;53.478;10.182;2023-04-19T13:03:09;13.90;99.90
23744;DHT22;12052;53.478;10.182;2023-04-19T13:05:36;13.80;98.80
23744;DHT22;12052;53.478;10.182;2023-04-19T13:08:02;13.60;98.40
23744;DHT22;12052;53.478;10.182;2023-04-19T13:10:28;13.50;98.70
23744;DHT22;12052;53.478;10.182;2023-04-19T13:12:53;13.30;99.10
23744;DHT22;12052;53.478;10.182;2023-04-19T13:15:19;13.30;99.60
23744;DHT22;12052;53.478;10.182;2023-04-19T13:17:45;13.40;99.60
23744;DHT22;12052;53.478;10.182;2023-04-19T13:20:11;13.40;99.30
23744;DHT22;12052;53.478;10.182;2023-04-19T13:22:36;13.60;99.90
23744;DHT22;12052;53.478;10.182;2023-04-19T13:25:02;13.60;98.70
23744;DHT22;12052;53.478;10.182;2023-04-19T13:27:28;13.40;99.20
23744;DHT22;12052;53.478;10.182;2023-04-19T13:29:54;13.30;99.40
23744;DHT22;12052;53.478;10.182;2023-04-19T13:32:20;13.40;99.90
23744;DHT22;12052;53.478;10.182;2023-04-19T13:34:46;13.40;99.90
23744;DHT22;12052;53.478;10.182;2023-04-19T13:37:12;13.60;99.90
23744;DHT22;12052;53.478;10.182;2023-04-19T13:39:37;13.40;99.30
23744;DHT22;12052;53.478;10.182;2023-04-19T13:42:04;13.60;99.90
23744;DHT22;12052;53.478;10.182;2023-04-19T13:44:30;13.60;99.90
23744;DHT22;12052;53.478;10.182;2023-04-19T13:46:55;13.50;99.90
23744;DHT22;12052;53.478;10.182;2023-04-19T13:49:22;13.50;99.90
23744;DHT22;12052;53.478;10.182;2023-04-19T13:51:47;13.70;99.90
23744;DHT22;12052;53.478;10.182;2023-04-19T13:54:13;13.80;99.80
23744;DHT22;12052;53.478;10.182;2023-04-19T13:56:39;13.90;99.90
23744;DHT22;12052;53.478;10.182;2023-04-19T13:59:04;14.00;99.00
23744;DHT22;12052;53.478;10.182;2023-04-19T14:01:30;13.90;99.50
23744;DHT22;12052;53.478;10.182;2023-04-19T14:03:56;14.10;98.90
23744;DHT22;12052;53.478;10.182;2023-04-19T14:06:21;13.90;98.80
23744;DHT22;12052;53.478;10.182;2023-04-19T14:08:48;13.90;98.60
23744;DHT22;12052;53.478;10.182;2023-04-19T14:11:14;13.50;97.50
23744;DHT22;12052;53.478;10.182;2023-04-19T14:13:39;13.40;98.60
23744;DHT22;12052;53.478;10.182;2023-04-19T14:16:05;13.50;98.80
23744;DHT22;12052;53.478;10.182;2023-04-19T14:18:31;13.30;98.80
23744;DHT22;12052;53.478;10.182;2023-04-19T14:20:57;13.30;98.80
23744;DHT22;12052;53.478;10.182;2023-04-19T14:23:22;13.20;99.40
23744;DHT22;12052;53.478;10.182;2023-04-19T14:25:48;13.20;99.70
23744;DHT22;12052;53.478;10.182;2023-04-19T14:28:13;13.10;99.50
23744;DHT22;12052;53.478;10.182;2023-04-19T14:30:39;13.10;99.90
23744;DHT22;12052;53.478;10.182;2023-04-19T14:33:05;13.10;99.90
23744;DHT22;12052;53.478;10.182;2023-04-19T14:35:30;13.20;99.00
23744;DHT22;12052;53.478;10.182;2023-04-19T14:37:56;13.10;99.90
23744;DHT22;12052;53.478;10.182;2023-04-19T14:40:22;13.20;99.90
23744;DHT22;12052;53.478;10.182;2023-04-19T14:42:48;13.30;99.90
23744;DHT22;12052;53.478;10.182;2023-04-19T14:45:13;13.30;99.90
23744;DHT22;12052;53.478;10.182;2023-04-19T14:47:39;13.20;99.40
23744;DHT22;12052;53.478;10.182;2023-04-19T14:50:05;13.20;99.90
23744;DHT22;12052;53.478;10.182;2023-04-19T14:52:31;13.00;99.90
23744;DHT22;12052;53.478;10.182;2023-04-19T14:54:57;12.90;99.90
23744;DHT22;12052;53.478;10.182;2023-04-19T14:57:24;12.80;99.90
23744;DHT22;12052;53.478;10.182;2023-04-19T14:59:53;12.80;99.50
23744;DHT22;12052;53.478;10.182;2023-04-19T15:02:23;12.80;99.90
23744;DHT22;12052;53.478;10.182;2023-04-19T15:04:49;12.80;99.90
23744;DHT22;12052;53.478;10.182;2023-04-19T15:07:15;12.80;99.80
23744;DHT22;12052;53.478;10.182;2023-04-19T15:09:41;12.70;99.90
23744;DHT22;12052;53.478;10.182;2023-04-19T15:12:06;12.70;99.90
23744;DHT22;12052;53.478;10.182;2023-04-19T15:14:32;12.70;99.60
23744;DHT22;12052;53.478;10.182;2023-04-19T15:16:58;12.60;99.10
23744;DHT22;12052;53.478;10.182;2023-04-19T15:19:23;12.60;99.80
23744;DHT22;12052;53.478;10.182;2023-04-19T15:21:49;12.70;99.90
23744;DHT22;12052;53.478;10.182;2023-04-19T15:24:15;12.60;99.70
23744;DHT22;12052;53.478;10.182;2023-04-19T15:26:40;12.70;99.90
23744;DHT22;12052;53.478;10.182;2023-04-19T15:29:06;12.70;99.70
23744;DHT22;12052;53.478;10.182;2023-04-19T15:31:32;12.60;98.60
23744;DHT22;12052;53.478;10.182;2023-04-19T15:34:01;12.50;98.30
23744;DHT22;12052;53.478;10.182;2023-04-19T15:36:27;12.40;97.90